createdAt,value
2022-11-02T00:01:39.538Z,13.81
2022-11-02T00:04:06.464Z,13.70
2022-11-02T00:06:33.708Z,13.28
2022-11-02T00:09:00.559Z,13.08
2022-11-02T00:11:27.426Z,13.32
2022-11-02T00:13:54.461Z,13.15
2022-11-02T00:16:22.811Z,13.18
2022-11-02T00:18:53.428Z,12.83
2022-11-02T00:21:21.780Z,12.93
2022-11-02T00:23:49.903Z,12.86
2022-11-02T00:26:17.690Z,12.91
2022-11-02T00:28:45.726Z,13.08
2022-11-02T00:31:12.702Z,13.05
2022-11-02T00:33:39.574Z,12.92
2022-11-02T00:36:06.667Z,12.97
2022-11-02T00:38:33.721Z,13.01
2022-11-02T00:41:00.559Z,13.13
2022-11-02T00:43:27.456Z,13.12
2022-11-02T00:45:54.382Z,13.10
2022-11-02T00:48:22.463Z,13.13
2022-11-02T00:50:49.473Z,13.10
2022-11-02T00:53:18.163Z,13.32
2022-11-02T00:55:51.589Z,13.11
2022-11-02T00:58:18.428Z,12.88
2022-11-02T01:00:45.420Z,12.66
2022-11-02T01:03:12.499Z,12.67
2022-11-02T01:05:39.345Z,12.57
2022-11-02T01:08:06.623Z,12.54
2022-11-02T01:10:33.775Z,12.21
2022-11-02T01:13:01.779Z,12.46
2022-11-02T01:15:28.757Z,12.27
2022-11-02T01:17:55.642Z,11.88
2022-11-02T01:20:22.547Z,12.31
2022-11-02T01:22:49.376Z,11.93
2022-11-02T01:25:16.364Z,11.90
2022-11-02T01:27:43.198Z,11.46
2022-11-02T01:30:10.730Z,11.42
2022-11-02T01:32:37.574Z,11.91
2022-11-02T01:35:04.811Z,12.07
2022-11-02T01:37:31.704Z,12.49
2022-11-02T01:39:58.600Z,12.12
2022-11-02T01:42:28.464Z,12.44
2022-11-02T01:44:56.665Z,12.60
2022-11-02T01:47:26.569Z,12.12
2022-11-02T01:49:58.328Z,11.68
2022-11-02T01:52:31.490Z,11.61
2022-11-02T01:55:07.265Z,11.56
2022-11-02T01:57:36.651Z,11.51
2022-11-02T02:00:08.675Z,11.42
2022-11-02T02:02:49.764Z,11.48
2022-11-02T02:05:18.421Z,11.74
2022-11-02T02:07:46.695Z,11.53
2022-11-02T02:10:14.771Z,11.32
2022-11-02T02:12:43.667Z,11.28
2022-11-02T02:15:15.864Z,11.32
2022-11-02T02:18:00.690Z,11.25
2022-11-02T02:20:48.619Z,11.08
2022-11-02T02:23:44.541Z,10.68
2022-11-02T02:26:17.205Z,10.47
2022-11-02T02:29:14.464Z,10.55
2022-11-02T02:31:53.854Z,10.82
2022-11-02T02:34:31.161Z,11.04
2022-11-02T02:37:10.100Z,10.84
2022-11-02T02:39:44.393Z,10.99
2022-11-02T02:42:31.548Z,11.14
2022-11-02T02:45:01.639Z,11.24
2022-11-02T02:47:33.117Z,11.18
2022-11-02T02:50:11.878Z,11.56
2022-11-02T02:52:40.242Z,11.72
2022-11-02T02:55:14.033Z,11.87
2022-11-02T02:57:41.773Z,11.75
2022-11-02T03:00:17.598Z,11.63
2022-11-02T03:03:01.303Z,11.21
2022-11-02T03:05:36.785Z,11.32
2022-11-02T03:08:13.718Z,11.40
2022-11-02T03:10:53.427Z,11.54
2022-11-02T03:13:35.671Z,11.04
2022-11-02T03:16:19.933Z,10.58
2022-11-02T03:18:54.594Z,10.28
2022-11-02T03:21:40.569Z,10.38
2022-11-02T03:24:33.405Z,10.35
2022-11-02T03:27:18.525Z,10.20
2022-11-02T03:29:52.188Z,9.89
2022-11-02T03:32:31.048Z,9.82
2022-11-02T03:35:07.225Z,9.81
2022-11-02T03:37:46.951Z,9.68
2022-11-02T03:40:20.276Z,9.62
2022-11-02T03:42:50.863Z,9.44
2022-11-02T03:45:24.023Z,9.35
2022-11-02T03:47:55.544Z,9.65
2022-11-02T03:50:23.789Z,9.64
2022-11-02T03:53:03.885Z,9.22
2022-11-02T03:55:36.822Z,8.88
2022-11-02T03:58:04.662Z,8.65
2022-11-02T04:00:36.098Z,8.27
2022-11-02T04:03:08.204Z,8.24
2022-11-02T04:05:40.683Z,8.12
2022-11-02T04:08:22.218Z,8.12
2022-11-02T04:11:12.276Z,8.10
2022-11-02T04:13:59.455Z,8.23
2022-11-02T04:16:29.130Z,8.10
2022-11-02T04:19:16.984Z,8.03
2022-11-02T04:22:04.911Z,7.97
2022-11-02T04:24:52.631Z,8.05
2022-11-02T04:27:21.284Z,8.17
2022-11-02T04:29:50.833Z,8.27
2022-11-02T04:32:36.996Z,8.12
2022-11-02T04:35:06.377Z,8.18
2022-11-02T04:37:57.366Z,8.04
2022-11-02T04:40:24.474Z,7.95
2022-11-02T04:42:53.005Z,7.89
2022-11-02T04:45:20.153Z,7.97
2022-11-02T04:47:48.311Z,8.06
2022-11-02T04:50:15.635Z,8.12
2022-11-02T04:52:43.846Z,8.34
2022-11-02T04:55:11.956Z,8.13
2022-11-02T04:57:44.959Z,8.33
2022-11-02T05:00:13.394Z,8.47
2022-11-02T05:02:40.983Z,8.47
2022-11-02T05:05:08.475Z,8.28
2022-11-02T05:07:35.546Z,8.30
2022-11-02T05:10:02.724Z,8.50
2022-11-02T05:12:30.947Z,8.24
2022-11-02T05:14:59.928Z,8.53
2022-11-02T05:17:27.244Z,8.66
2022-11-02T05:19:54.231Z,8.62
2022-11-02T05:22:21.572Z,8.56
2022-11-02T05:24:48.664Z,8.52
2022-11-02T05:27:16.064Z,8.79
2022-11-02T05:29:45.089Z,8.85
2022-11-02T05:32:12.017Z,8.94
2022-11-02T05:34:39.446Z,9.09
2022-11-02T05:37:08.807Z,9.37
2022-11-02T05:39:37.287Z,9.31
2022-11-02T05:42:04.809Z,9.28
2022-11-02T05:44:32.139Z,9.19
2022-11-02T05:46:59.377Z,9.10
2022-11-02T05:49:26.310Z,9.21
2022-11-02T05:51:53.190Z,9.43
2022-11-02T05:54:20.847Z,9.35
2022-11-02T05:56:47.787Z,9.75
2022-11-02T05:59:14.657Z,10.17
2022-11-02T06:01:41.639Z,10.40
2022-11-02T06:04:08.710Z,10.55
2022-11-02T06:06:35.658Z,10.95
2022-11-02T06:09:06.891Z,11.86
2022-11-02T06:11:34.478Z,12.66
2022-11-02T06:14:02.948Z,13.51
2022-11-02T06:16:30.616Z,14.66
2022-11-02T06:18:57.588Z,15.47
2022-11-02T06:21:24.599Z,16.20
2022-11-02T06:23:51.540Z,17.42
2022-11-02T06:26:18.583Z,18.09
2022-11-02T06:28:45.474Z,19.21
2022-11-02T06:31:13.711Z,20.23
2022-11-02T06:33:40.602Z,22.16
2022-11-02T06:36:07.735Z,22.20
2022-11-02T06:38:34.593Z,22.70
2022-11-02T06:41:05.760Z,23.33
2022-11-02T06:43:34.451Z,24.99
2022-11-02T06:46:01.453Z,24.65
2022-11-02T06:48:34.603Z,25.87
2022-11-02T06:51:03.064Z,25.70
2022-11-02T06:53:30.088Z,26.20
2022-11-02T06:55:58.450Z,27.05
2022-11-02T06:58:26.331Z,27.00
2022-11-02T07:01:05.254Z,27.13
2022-11-02T07:03:32.274Z,27.58
2022-11-02T07:05:59.983Z,28.02
2022-11-02T07:08:27.907Z,27.39
2022-11-02T07:10:54.797Z,27.70
2022-11-02T07:13:21.820Z,27.21
2022-11-02T07:15:52.794Z,27.45
2022-11-02T07:18:19.844Z,27.71
2022-11-02T07:20:46.736Z,26.57
2022-11-02T07:23:13.593Z,25.80
2022-11-02T07:25:41.732Z,24.98
2022-11-02T07:28:08.608Z,24.95
2022-11-02T07:30:35.752Z,24.98
2022-11-02T07:33:03.089Z,25.37
2022-11-02T07:35:30.595Z,25.92
2022-11-02T07:38:03.292Z,26.61
2022-11-02T07:40:31.518Z,27.26
2022-11-02T07:42:59.222Z,27.97
2022-11-02T07:45:52.103Z,28.42
2022-11-02T07:48:18.929Z,28.15
2022-11-02T07:50:45.757Z,28.78
2022-11-02T07:53:12.616Z,29.41
2022-11-02T07:55:39.753Z,28.96
2022-11-02T07:58:10.395Z,28.66
2022-11-02T08:00:39.576Z,28.83
2022-11-02T08:03:08.403Z,29.40
2022-11-02T08:05:37.709Z,28.92
2022-11-02T08:08:10.825Z,29.57
2022-11-02T08:10:40.480Z,28.58
2022-11-02T08:13:09.336Z,28.59
2022-11-02T08:15:36.931Z,28.10
2022-11-02T08:18:05.564Z,27.22
2022-11-02T08:20:35.344Z,26.55
2022-11-02T08:23:02.586Z,26.78
2022-11-02T08:25:29.585Z,26.97
2022-11-02T08:27:59.157Z,27.45
2022-11-02T08:30:27.718Z,27.27
2022-11-02T08:32:57.055Z,28.50
2022-11-02T08:35:24.559Z,28.13
2022-11-02T08:37:57.967Z,29.62
2022-11-02T08:40:25.142Z,30.25
2022-11-02T08:43:06.135Z,31.13
2022-11-02T08:46:00.636Z,30.97
2022-11-02T08:48:21.948Z,30.88
2022-11-02T08:50:49.555Z,29.93
2022-11-02T08:53:16.561Z,30.40
2022-11-02T08:55:43.498Z,29.11
2022-11-02T08:58:10.431Z,28.09
2022-11-02T09:00:37.369Z,27.95
2022-11-02T09:03:13.120Z,27.20
2022-11-02T09:05:42.780Z,27.86
2022-11-02T09:08:18.288Z,27.40
2022-11-02T09:10:47.918Z,27.72
2022-11-02T09:13:18.836Z,28.19
2022-11-02T09:15:49.690Z,28.82
2022-11-02T09:18:16.819Z,29.27
2022-11-02T09:20:43.686Z,29.21
2022-11-02T09:23:11.081Z,29.10
2022-11-02T09:25:38.197Z,29.87
2022-11-02T09:28:05.337Z,30.48
2022-11-02T09:30:32.436Z,31.11
2022-11-02T09:33:02.157Z,31.61
2022-11-02T09:35:34.722Z,30.83
2022-11-02T09:38:01.624Z,32.17
2022-11-02T09:40:35.647Z,33.09
2022-11-02T09:43:08.893Z,34.04
2022-11-02T09:45:42.339Z,33.22
2022-11-02T09:48:27.859Z,32.75
2022-11-02T09:51:19.024Z,32.93
2022-11-02T09:54:17.327Z,33.66
2022-11-02T09:56:46.003Z,34.47
2022-11-02T09:59:26.965Z,35.62
2022-11-02T10:02:28.798Z,34.99
2022-11-02T10:05:07.869Z,34.65
2022-11-02T10:07:56.545Z,33.97
2022-11-02T10:10:43.470Z,33.63
2022-11-02T10:13:25.572Z,33.61
2022-11-02T10:16:01.153Z,33.09
2022-11-02T10:18:30.410Z,34.53
2022-11-02T10:21:06.427Z,35.27
2022-11-02T10:23:38.331Z,35.87
2022-11-02T10:26:05.409Z,36.49
2022-11-02T10:28:39.298Z,35.87
2022-11-02T10:31:27.576Z,34.73
2022-11-02T10:33:58.096Z,34.46
2022-11-02T10:36:31.541Z,34.04
2022-11-02T10:39:13.305Z,33.08
2022-11-02T10:41:49.020Z,33.85
2022-11-02T10:45:01.692Z,35.79
2022-11-02T10:47:32.246Z,35.32
2022-11-02T10:50:12.552Z,35.83
2022-11-02T10:52:43.349Z,35.53
2022-11-02T10:55:21.472Z,34.80
2022-11-02T10:57:49.373Z,35.28
2022-11-02T11:00:27.703Z,35.65
2022-11-02T11:03:14.947Z,35.79
2022-11-02T11:05:56.139Z,36.57
2022-11-02T11:08:32.261Z,36.20
2022-11-02T11:11:15.278Z,37.52
2022-11-02T11:16:37.611Z,38.07
2022-11-02T11:22:03.202Z,35.88
2022-11-02T11:24:32.656Z,36.38
2022-11-02T11:27:11.679Z,35.77
2022-11-02T11:29:41.196Z,36.61
2022-11-02T11:32:22.762Z,37.75
2022-11-02T11:35:03.475Z,38.39
2022-11-02T11:37:31.207Z,38.49
2022-11-02T11:40:16.574Z,37.87
2022-11-02T11:42:43.863Z,37.12
2022-11-02T11:45:27.958Z,37.00
2022-11-02T11:48:02.727Z,36.48
2022-11-02T11:50:30.390Z,35.90
2022-11-02T11:53:15.664Z,35.75
2022-11-02T11:55:51.477Z,35.37
2022-11-02T11:58:22.537Z,35.97
2022-11-02T12:01:09.302Z,35.90
2022-11-02T12:03:53.920Z,36.51
2022-11-02T12:06:20.864Z,36.52
2022-11-02T12:09:16.623Z,36.88
2022-11-02T12:12:11.130Z,36.26
2022-11-02T12:14:43.685Z,35.91
2022-11-02T12:17:34.720Z,36.43
2022-11-02T12:20:17.239Z,35.20
2022-11-02T12:23:22.462Z,35.28
2022-11-02T12:26:18.292Z,36.51
2022-11-02T12:29:24.192Z,37.83
2022-11-02T12:32:19.902Z,36.41
2022-11-02T12:35:27.800Z,34.10
2022-11-02T12:38:39.677Z,31.45
2022-11-02T12:41:13.089Z,30.79
2022-11-02T12:43:44.555Z,31.02
2022-11-02T12:46:17.609Z,31.28
2022-11-02T12:48:53.557Z,30.44
2022-11-02T12:51:43.708Z,30.51
2022-11-02T12:54:14.140Z,30.74
2022-11-02T12:56:53.931Z,31.73
2022-11-02T12:59:28.140Z,31.24
2022-11-02T13:01:58.072Z,30.89
2022-11-02T13:04:35.459Z,31.39
2022-11-02T13:07:13.486Z,31.55
2022-11-02T13:10:02.926Z,31.69
2022-11-02T13:12:34.396Z,30.56
2022-11-02T13:15:02.282Z,30.74
2022-11-02T13:17:44.421Z,30.51
2022-11-02T13:20:16.336Z,30.82
2022-11-02T13:22:47.846Z,31.44
2022-11-02T13:25:20.427Z,31.88
2022-11-02T13:28:05.404Z,31.46
2022-11-02T13:30:33.974Z,31.37
2022-11-02T13:33:17.778Z,31.83
2022-11-02T13:35:46.300Z,31.85
2022-11-02T13:38:13.160Z,30.95
2022-11-02T13:40:45.983Z,30.88
2022-11-02T13:43:24.894Z,30.81
2022-11-02T13:46:11.921Z,29.97
2022-11-02T13:48:51.129Z,30.05
2022-11-02T13:51:28.733Z,29.80
2022-11-02T13:54:03.429Z,29.73
2022-11-02T13:56:30.542Z,29.97
2022-11-02T13:59:04.113Z,29.75
2022-11-02T14:01:33.744Z,29.52
2022-11-02T14:04:20.188Z,28.98
2022-11-02T14:06:49.126Z,28.74
2022-11-02T14:09:35.498Z,28.70
2022-11-02T14:12:13.192Z,28.27
2022-11-02T14:14:40.099Z,28.09
2022-11-02T14:17:12.447Z,28.13
2022-11-02T14:19:52.517Z,27.90
2022-11-02T14:22:19.940Z,27.80
2022-11-02T14:24:48.348Z,27.82
2022-11-02T14:27:19.294Z,27.73
2022-11-02T14:29:46.234Z,27.67
2022-11-02T14:32:20.049Z,27.83
2022-11-02T14:35:14.563Z,27.62
2022-11-02T14:37:53.191Z,27.54
2022-11-02T14:40:44.623Z,27.32
2022-11-02T14:43:43.167Z,27.29
2022-11-02T14:46:31.673Z,24.93
2022-11-02T14:49:01.973Z,22.85
2022-11-02T14:51:32.658Z,22.12
2022-11-02T14:54:06.809Z,21.01
2022-11-02T14:56:56.446Z,20.55
2022-11-02T14:59:29.473Z,20.28
2022-11-02T15:02:09.823Z,20.27
2022-11-02T15:04:36.968Z,20.45
2022-11-02T15:07:06.446Z,20.55
2022-11-02T15:09:54.212Z,20.33
2022-11-02T15:12:31.930Z,20.05
2022-11-02T15:15:02.891Z,20.06
2022-11-02T15:17:29.697Z,20.12
2022-11-02T15:19:56.626Z,20.23
2022-11-02T15:22:38.473Z,20.34
2022-11-02T15:25:26.516Z,20.18
2022-11-02T15:27:57.527Z,20.75
2022-11-02T15:30:28.385Z,20.69
2022-11-02T15:33:05.955Z,20.67
2022-11-02T15:35:37.163Z,20.60
2022-11-02T15:38:27.901Z,20.76
2022-11-02T15:41:06.334Z,20.95
2022-11-02T15:43:43.242Z,21.22
2022-11-02T15:46:29.946Z,21.36
2022-11-02T15:49:21.219Z,21.16
2022-11-02T15:52:02.047Z,21.00
2022-11-02T15:54:45.759Z,21.10
2022-11-02T15:57:18.876Z,21.09
2022-11-02T16:00:09.895Z,21.09
2022-11-02T16:02:54.884Z,21.06
2022-11-02T16:05:28.035Z,21.22
2022-11-02T16:08:10.520Z,21.24
2022-11-02T16:10:43.522Z,21.37
2022-11-02T16:13:10.344Z,21.54
2022-11-02T16:15:38.036Z,21.55
2022-11-02T16:18:05.185Z,21.66
2022-11-02T16:20:39.948Z,21.63
2022-11-02T16:23:13.073Z,21.60
2022-11-02T16:25:47.623Z,21.64
2022-11-02T16:28:25.042Z,21.81
2022-11-02T16:31:13.540Z,22.09
2022-11-02T16:33:42.581Z,22.15
2022-11-02T16:36:12.134Z,22.17
2022-11-02T16:38:39.615Z,21.61
2022-11-02T16:41:09.461Z,21.04
2022-11-02T16:43:45.596Z,21.29
2022-11-02T16:46:18.860Z,21.48
2022-11-02T16:49:07.154Z,21.59
2022-11-02T16:51:34.186Z,21.39
2022-11-02T16:54:18.407Z,21.22
2022-11-02T16:56:50.066Z,20.99
2022-11-02T16:59:17.677Z,20.96
2022-11-02T17:01:44.968Z,20.78
2022-11-02T17:04:20.337Z,20.74
2022-11-02T17:06:49.288Z,20.81
2022-11-02T17:09:25.236Z,20.74
2022-11-02T17:11:53.849Z,20.63
2022-11-02T17:14:22.602Z,20.50
2022-11-02T17:17:06.073Z,20.27
2022-11-02T17:19:41.925Z,20.64
2022-11-02T17:22:21.364Z,20.85
2022-11-02T17:24:48.662Z,20.89
2022-11-02T17:27:26.290Z,20.81
2022-11-02T17:29:57.168Z,21.16
2022-11-02T17:32:24.756Z,20.75
2022-11-02T17:34:53.442Z,20.45
2022-11-02T17:37:28.407Z,20.71
2022-11-02T17:39:55.670Z,20.75
2022-11-02T17:42:41.373Z,20.54
2022-11-02T17:45:28.772Z,20.10
2022-11-02T17:47:57.474Z,20.09
2022-11-02T17:50:26.030Z,19.79
2022-11-02T17:52:53.821Z,19.85
2022-11-02T17:55:27.343Z,19.97
2022-11-02T17:57:55.352Z,20.09
2022-11-02T18:00:23.363Z,19.88
2022-11-02T18:02:55.072Z,19.76
2022-11-02T18:05:29.169Z,19.84
2022-11-02T18:07:58.264Z,19.90
2022-11-02T18:10:29.224Z,19.44
2022-11-02T18:12:56.287Z,19.82
2022-11-02T18:15:26.055Z,20.03
2022-11-02T18:17:53.634Z,19.78
2022-11-02T18:20:20.917Z,19.64
2022-11-02T18:22:47.834Z,19.78
2022-11-02T18:25:17.255Z,19.59
2022-11-02T18:27:45.569Z,19.38
2022-11-02T18:30:14.812Z,19.54
2022-11-02T18:32:43.322Z,19.81
2022-11-02T18:35:13.499Z,19.86
2022-11-02T18:37:40.906Z,19.94
2022-11-02T18:40:10.175Z,19.66
2022-11-02T18:42:41.436Z,19.68
2022-11-02T18:45:10.351Z,19.86
2022-11-02T18:47:38.208Z,19.61
2022-11-02T18:50:07.262Z,19.59
2022-11-02T18:52:34.465Z,19.45
2022-11-02T18:55:05.379Z,19.21
2022-11-02T18:57:33.094Z,19.15
2022-11-02T19:00:02.550Z,19.27
2022-11-02T19:02:29.751Z,19.27
2022-11-02T19:04:56.745Z,18.53
2022-11-02T19:07:42.427Z,18.37
2022-11-02T19:10:10.103Z,18.10
2022-11-02T19:12:37.501Z,18.00
2022-11-02T19:15:05.480Z,18.45
2022-11-02T19:17:32.309Z,18.05
2022-11-02T19:19:59.220Z,18.07
2022-11-02T19:22:26.810Z,18.46
2022-11-02T19:24:53.941Z,18.22
2022-11-02T19:27:23.186Z,18.21
2022-11-02T19:29:50.433Z,17.90
2022-11-02T19:32:18.584Z,18.11
2022-11-02T19:34:45.568Z,18.38
2022-11-02T19:37:13.128Z,18.00
2022-11-02T19:39:40.100Z,18.16
2022-11-02T19:42:07.632Z,18.16
2022-11-02T19:44:41.274Z,18.23
2022-11-02T19:47:10.230Z,18.41
2022-11-02T19:49:37.132Z,17.85
2022-11-02T19:52:04.373Z,18.04
2022-11-02T19:54:31.282Z,17.99
2022-11-02T19:56:58.169Z,18.02
2022-11-02T19:59:25.078Z,17.79
2022-11-02T20:01:52.464Z,17.91
2022-11-02T20:04:19.564Z,17.92
2022-11-02T20:06:46.486Z,17.90
2022-11-02T20:09:16.217Z,17.01
2022-11-02T20:11:45.294Z,16.77
2022-11-02T20:14:14.135Z,16.76
2022-11-02T20:16:41.270Z,17.18
2022-11-02T20:19:09.394Z,17.34
2022-11-02T20:21:41.644Z,17.41
2022-11-02T20:24:11.831Z,17.46
2022-11-02T20:26:41.187Z,17.37
2022-11-02T20:29:10.910Z,17.59
2022-11-02T20:31:40.999Z,17.29
2022-11-02T20:34:08.496Z,17.09
2022-11-02T20:36:35.989Z,17.25
2022-11-02T20:39:05.015Z,17.33
2022-11-02T20:41:32.110Z,17.53
2022-11-02T20:43:59.262Z,17.38
2022-11-02T20:46:47.388Z,17.45
2022-11-02T20:49:48.759Z,17.26
2022-11-02T20:52:03.734Z,17.31
2022-11-02T20:54:30.735Z,16.92
2022-11-02T20:56:57.823Z,16.40
2022-11-02T20:59:25.380Z,16.59
2022-11-02T21:01:52.278Z,16.68
2022-11-02T21:04:21.248Z,16.76
2022-11-02T21:06:49.767Z,16.61
2022-11-02T21:09:17.389Z,16.15
2022-11-02T21:12:02.959Z,16.14
2022-11-02T21:14:29.893Z,16.13
2022-11-02T21:16:56.782Z,15.87
2022-11-02T21:19:23.701Z,15.92
2022-11-02T21:21:55.035Z,15.87
2022-11-02T21:24:23.589Z,15.92
2022-11-02T21:26:50.414Z,15.68
2022-11-02T21:29:17.342Z,15.85
2022-11-02T21:31:44.211Z,15.87
2022-11-02T21:34:11.061Z,16.01
2022-11-02T21:36:37.905Z,16.15
2022-11-02T21:39:04.748Z,15.40
2022-11-02T21:41:36.740Z,15.77
2022-11-02T21:44:03.995Z,15.73
2022-11-02T21:46:30.913Z,15.78
2022-11-02T21:48:57.766Z,15.91
2022-11-02T21:51:24.864Z,15.89
2022-11-02T21:53:52.544Z,16.17
2022-11-02T21:56:22.713Z,16.22
2022-11-02T21:58:49.775Z,15.60
2022-11-02T22:01:36.124Z,14.59
2022-11-02T22:04:04.482Z,15.06
2022-11-02T22:06:32.069Z,15.28
2022-11-02T22:09:00.463Z,15.38
2022-11-02T22:11:28.313Z,15.33
2022-11-02T22:13:57.438Z,15.41
2022-11-02T22:16:29.343Z,15.39
2022-11-02T22:18:59.090Z,15.03
2022-11-02T22:21:28.823Z,15.31
2022-11-02T22:23:56.726Z,15.66
2022-11-02T22:26:26.569Z,15.40
2022-11-02T22:28:57.188Z,15.71
2022-11-02T22:31:27.296Z,15.94
2022-11-02T22:33:56.379Z,15.80
2022-11-02T22:36:26.517Z,15.73
2022-11-02T22:38:55.011Z,15.18
2022-11-02T22:41:24.773Z,15.30
2022-11-02T22:43:54.120Z,15.51
2022-11-02T22:46:22.294Z,15.09
2022-11-02T22:48:52.052Z,14.59
2022-11-02T22:51:21.141Z,15.10
2022-11-02T22:53:48.702Z,14.94
2022-11-02T22:56:17.421Z,14.63
2022-11-02T22:58:46.022Z,14.58
2022-11-02T23:01:16.505Z,14.44
2022-11-02T23:03:43.817Z,14.54
2022-11-02T23:06:11.863Z,14.46
2022-11-02T23:08:41.569Z,14.50
2022-11-02T23:11:22.203Z,15.00
2022-11-02T23:13:51.842Z,14.95
2022-11-02T23:16:23.177Z,15.32
2022-11-02T23:19:16.961Z,14.80
2022-11-02T23:22:11.399Z,15.28
2022-11-02T23:25:02.958Z,15.05
2022-11-02T23:27:31.392Z,15.37
2022-11-02T23:30:16.684Z,15.67
2022-11-02T23:32:43.563Z,15.44
2022-11-02T23:35:29.209Z,15.61
2022-11-02T23:38:03.474Z,15.88
2022-11-02T23:40:31.027Z,16.29
2022-11-02T23:42:58.011Z,15.44
2022-11-02T23:45:25.055Z,15.75
2022-11-02T23:47:57.731Z,16.19
2022-11-02T23:50:45.027Z,16.34
2022-11-02T23:53:31.961Z,15.81
2022-11-02T23:56:18.117Z,15.92
2022-11-02T23:58:45.490Z,16.59
